Meteo Giornale » Osservazioni meteo Egitto » Cairo

ore: 18:30 - Osservazioni Meteo Cairo
Lat. 30° 8' N Lon. 31° 24' E Alt. 64 metri s.l.m.

sereno Africa/Cairo

22 °C

Sereno

Temp. 24 Ore

15 °C

24 °C

Nord/NOvest

16.7 Km/h

Dew point 6 °C

Umidità 35 %

Visibilità  10 Km

Il sole sorge alle ore 05:48

Il sole tramonta alle ore 18:10

Data e Ora Cielo e Fenomeni T °C DP °C Um. % Pres. hPa Vis. km Vento km/h
Oggi h: 18:30 sereno Sereno 22 6 35 1016 10 N/NO 16.7
Oggi h: 18:00 sereno Sereno 23 6 33 1016 10 N/NO 16.7
Oggi h: 17:30 sereno Sereno 23 6 33 1016 10 N 16.7
Oggi h: 17:00 sereno Sereno 24 6 31 1016 10 N/NO 18.5
Oggi h: 16:30 sereno Sereno 24 5 29 1016 10 N/NO 25.9
Oggi h: 16:00 sereno Sereno 24 5 29 1016 10 N/NO 20.3
Oggi h: 15:30 sereno Sereno 24 6 31 1016 10 N/NO 18.5
Oggi h: 15:00 sereno Sereno 24 6 31 1016 10 NO 9.3
Oggi h: 14:30 sereno Sereno 24 5 29 1016 10 N 9.3
Oggi h: 14:00 sereno Sereno 24 5 29 1016 10 N 9.3
Oggi h: 13:30 sereno Sereno 23 5 31 1017 10 N 5.5
Oggi h: 13:00 sereno Sereno 23 5 31 1017 10 N 5.5
Oggi h: 12:30 sereno Sereno 23 6 33 1017 10 NE 11.1
Oggi h: 12:00 sereno Sereno 22 4 30 1018 10 N 5.5
Oggi h: 11:30 sereno Sereno 21 5 35 1018 10 NO 9.3
Oggi h: 11:00 sereno Sereno 20 8 45 1019 10 N/NE 7.4
Oggi h: 10:30 sereno Sereno 20 10 52 1019 6 N 5.5
Oggi h: 10:00 sereno Sereno 19 10 55 1019 6 N 5.5
Oggi h: 09:30 foschia Foschia 18 12 67 1019 4 N 3.7
Oggi h: 09:00 foschia Foschia 17 12 72 1019 4 NE 9.3
Oggi h: 08:30 foschia Foschia 16 13 82 1019 2 E/NE 11.1
Oggi h: 08:00 foschia Foschia 15 13 87 1018 2 N/NE 7.4
Oggi h: 07:30 foschia Foschia 15 13 87 1018 2 N 11.1
Oggi h: 07:00 foschia Foschia 15 12 82 1018 2 N 5.5
Oggi h: 06:30 foschia Foschia 15 12 82 1018 2 N 7.4
Oggi h: 06:00 foschia Foschia 15 12 82 1018 2 N 7.4
Oggi h: 05:30 foschia Foschia 15 12 82 1017 4 N 5.5
Oggi h: 05:00 foschia Foschia 15 12 82 1017 4 N 5.5
Oggi h: 04:30 nuvoloso Nuvoloso 15 13 87 1017 6 N 1.8
Oggi h: 04:00 nuvoloso Nuvoloso 15 13 87 1017 6 N 1.8
Oggi h: 03:30 nuvoloso Nuvoloso 16 12 77 1017 6 N 1.8
Oggi h: 03:00 sereno Sereno 16 12 77 1017 10 N 1.8
Oggi h: 02:30 sereno Sereno 16 11 72 1017 10 NE 7.4
Oggi h: 02:00 sereno Sereno 16 11 72 1017 10 NE 7.4
Oggi h: 01:30 sereno Sereno 16 12 77 1018 10 E/NE 7.4
Oggi h: 01:00 sereno Sereno 16 12 77 1018 10 E/NE 7.4
Oggi h: 00:30 sereno Sereno 16 12 77 1018 10 NE 11.1
Oggi h: 00:00 sereno Sereno 17 12 72 1018 10 NE 9.3
Ieri h: 23:30 sereno Sereno 17 12 72 1018 10 N 11.1
Ieri h: 23:00 sereno Sereno 17 11 67 1018 10 N 14.8
Ieri h: 22:30 sereno Sereno 17 9 59 1018 10 N 14.8
Ieri h: 22:00 sereno Sereno 18 9 55 1018 10 N/NO 14.8
Ieri h: 21:30 sereno Sereno 19 7 45 1018 10 N 22.2
Ieri h: 21:00 sereno Sereno 20 6 39 1017 10 N 20.3
Ieri h: 20:30 sereno Sereno 21 5 35 1017 10 N/NE 18.5
Ieri h: 20:00 sereno Sereno 21 6 37 1016 10 N 14.8
Ieri h: 19:30 sereno Sereno 21 6 37 1016 10 N 14.8
Ieri h: 19:00 sereno Sereno 21 6 37 1016 10 N/NO 14.8